Time;durP1;ratioP1;P1;durP2;ratioP2;P2;SDS_P1;SDS_P2;PMS_P1;PMS_P2;Temp;Humidity;BMP_temperature;BMP_pressure;BME280_temperature;BME280_humidity;BME280_pressure;Samples;Min_cycle;Max_cycle;Signal;HPM_P1;HPM_P2
2021/11/24 00:00:56;;;;;;;20.85;13.70;;;4.20;79.30;;;;;;5038583;28;20154;-67
2021/11/24 00:03:21;;;;;;;20.75;13.35;;;4.20;79.30;;;;;;5041241;28;20039;-67
2021/11/24 00:05:47;;;;;;;20.45;13.82;;;4.10;79.30;;;;;;5040584;28;20404;-67
2021/11/24 00:08:13;;;;;;;20.33;12.90;;;4.20;79.40;;;;;;5037981;28;20040;-67
2021/11/24 00:10:39;;;;;;;20.25;13.60;;;4.10;79.30;;;;;;5040060;28;20025;-68
2021/11/24 00:13:05;;;;;;;22.10;14.15;;;4.20;79.50;;;;;;5040527;28;20036;-67
2021/11/24 00:15:32;;;;;;;19.52;13.55;;;4.10;79.30;;;;;;5043775;28;20040;-68
2021/11/24 00:17:58;;;;;;;19.92;13.88;;;4.10;79.20;;;;;;5039809;28;20041;-67
2021/11/24 00:20:24;;;;;;;22.42;14.75;;;4.10;79.30;;;;;;5043449;28;20571;-67
2021/11/24 00:22:50;;;;;;;20.95;13.55;;;4.10;79.30;;;;;;5044424;28;20037;-67
2021/11/24 00:25:15;;;;;;;20.98;14.15;;;4.10;79.40;;;;;;5042778;28;20078;-67
2021/11/24 00:27:41;;;;;;;19.58;13.50;;;4.10;79.50;;;;;;5036509;28;20036;-68
2021/11/24 00:30:08;;;;;;;19.48;13.35;;;4.10;79.50;;;;;;5044920;28;20082;-67
2021/11/24 00:32:34;;;;;;;20.20;13.45;;;4.10;79.50;;;;;;5038992;28;20079;-67
2021/11/24 00:35:00;;;;;;;20.38;14.40;;;4.10;79.50;;;;;;5044150;28;20044;-67
2021/11/24 00:37:28;;;;;;;20.30;13.82;;;4.10;79.40;;;;;;5039381;28;20083;-67
2021/11/24 00:39:54;;;;;;;21.55;13.38;;;4.10;79.40;;;;;;5039232;28;20104;-67
2021/11/24 00:42:19;;;;;;;20.73;13.80;;;4.00;79.50;;;;;;5041467;28;20113;-68
2021/11/24 00:44:45;;;;;;;19.63;13.45;;;4.00;79.50;;;;;;5042296;28;20033;-67
2021/11/24 00:47:10;;;;;;;19.98;14.27;;;4.00;79.50;;;;;;5037591;28;20056;-67
2021/11/24 00:49:39;;;;;;;20.25;13.38;;;4.00;79.50;;;;;;5041519;28;20430;-67
2021/11/24 00:52:05;;;;;;;21.65;14.50;;;4.00;79.70;;;;;;5040674;28;20037;-66
2021/11/24 00:54:31;;;;;;;21.92;13.52;;;3.90;79.60;;;;;;5044510;28;20045;-67
2021/11/24 00:56:56;;;;;;;19.80;13.30;;;3.90;79.70;;;;;;5039900;28;20139;-66
2021/11/24 00:59:22;;;;;;;23.10;15.00;;;3.90;79.90;;;;;;5040844;28;20424;-67
2021/11/24 01:01:47;;;;;;;20.67;13.77;;;3.90;79.80;;;;;;5036427;28;20048;-67
2021/11/24 01:04:13;;;;;;;23.40;14.45;;;3.90;79.80;;;;;;5039181;28;20518;-67
2021/11/24 01:06:39;;;;;;;19.17;12.85;;;3.90;79.90;;;;;;5039323;28;20029;-68
2021/11/24 01:09:05;;;;;;;21.42;14.45;;;3.90;79.90;;;;;;5040012;28;20037;-67
2021/11/24 01:11:31;;;;;;;24.38;15.27;;;3.80;80.00;;;;;;5035749;28;20094;-67
2021/11/24 01:13:57;;;;;;;20.63;13.73;;;3.90;80.10;;;;;;5044751;28;20029;-67
2021/11/24 01:16:23;;;;;;;19.42;13.73;;;3.80;80.10;;;;;;5040446;28;20044;-67
2021/11/24 01:18:49;;;;;;;21.50;13.90;;;3.80;80.20;;;;;;5041658;28;20120;-67
2021/11/24 01:21:14;;;;;;;20.83;13.60;;;3.80;80.10;;;;;;5039706;28;20057;-67
2021/11/24 01:23:40;;;;;;;23.17;15.15;;;3.80;80.10;;;;;;5037998;28;20711;-67
2021/11/24 01:26:06;;;;;;;23.77;14.85;;;3.80;80.10;;;;;;5040025;28;20450;-68
2021/11/24 01:28:31;;;;;;;24.63;15.20;;;3.80;80.20;;;;;;5040068;28;20033;-68
2021/11/24 01:30:57;;;;;;;22.42;13.98;;;3.80;80.30;;;;;;5043619;28;20029;-67
2021/11/24 01:33:23;;;;;;;21.23;13.82;;;3.80;81.10;;;;;;5037416;28;20123;-68
2021/11/24 01:35:49;;;;;;;21.95;14.02;;;3.70;80.40;;;;;;5037277;28;20037;-68
2021/11/24 01:38:14;;;;;;;20.88;13.60;;;3.70;80.50;;;;;;5038645;28;20724;-67
2021/11/24 01:40:40;;;;;;;25.45;14.55;;;3.80;80.60;;;;;;5040252;28;20025;-68
2021/11/24 01:43:08;;;;;;;22.73;13.98;;;3.80;80.60;;;;;;5038531;28;20029;-67
2021/11/24 01:45:35;;;;;;;22.70;14.65;;;3.80;80.60;;;;;;5042067;28;20079;-67
2021/11/24 01:48:01;;;;;;;22.13;14.57;;;3.80;80.40;;;;;;5038469;28;20025;-68
2021/11/24 01:50:28;;;;;;;19.75;13.52;;;3.80;80.30;;;;;;5041454;28;20037;-68
2021/11/24 01:52:54;;;;;;;19.45;13.68;;;3.80;80.30;;;;;;5042060;28;20040;-68
2021/11/24 01:55:20;;;;;;;20.67;13.13;;;3.70;80.20;;;;;;5035314;28;20055;-68
2021/11/24 01:57:48;;;;;;;20.48;13.25;;;3.70;80.40;;;;;;5034924;28;20041;-68
2021/11/24 02:00:18;;;;;;;21.23;13.30;;;3.70;80.50;;;;;;5034518;28;20049;-68
2021/11/24 02:02:43;;;;;;;22.13;14.20;;;3.70;80.60;;;;;;5034123;28;20123;-67
2021/11/24 02:05:09;;;;;;;21.45;14.07;;;3.70;80.60;;;;;;5034680;28;20497;-67
2021/11/24 02:07:36;;;;;;;21.40;14.05;;;3.70;81.40;;;;;;5039740;28;20043;-68
2021/11/24 02:10:02;;;;;;;20.08;13.60;;;3.70;80.60;;;;;;5036444;28;20037;-67
2021/11/24 02:12:28;;;;;;;21.50;13.45;;;3.70;80.70;;;;;;5031711;28;20114;-68
2021/11/24 02:14:54;;;;;;;22.17;13.45;;;3.70;81.60;;;;;;5040825;28;20071;-68
2021/11/24 02:17:19;;;;;;;22.13;13.38;;;3.70;80.80;;;;;;5035821;28;20037;-68
2021/11/24 02:19:45;;;;;;;23.83;14.02;;;3.80;80.90;;;;;;5042832;28;20048;-67
2021/11/24 02:22:11;;;;;;;21.13;13.35;;;3.80;80.70;;;;;;5043409;28;20105;-68
2021/11/24 02:24:38;;;;;;;22.27;14.00;;;3.70;80.70;;;;;;5041743;28;20033;-68
2021/11/24 02:27:07;;;;;;;21.20;14.38;;;3.80;80.80;;;;;;5040181;28;20045;-68
2021/11/24 02:29:33;;;;;;;20.67;13.40;;;3.70;80.60;;;;;;5041399;28;20041;-66
2021/11/24 02:32:00;;;;;;;21.20;13.27;;;3.70;80.70;;;;;;5046749;28;20107;-68
2021/11/24 02:34:27;;;;;;;20.05;13.30;;;3.70;80.90;;;;;;5040424;28;20032;-67
2021/11/24 02:36:54;;;;;;;23.33;13.95;;;3.70;81.00;;;;;;5042274;28;20041;-68
2021/11/24 02:39:20;;;;;;;20.17;12.73;;;3.70;81.10;;;;;;5041354;28;20482;-68
2021/11/24 02:41:46;;;;;;;22.70;13.50;;;3.70;81.30;;;;;;5043065;28;20534;-68
2021/11/24 02:44:32;;;;;;;22.33;13.73;;;3.70;81.40;;;;;;5039498;28;20131;-67
2021/11/24 02:47:14;;;;;;;21.65;12.80;;;3.70;81.50;;;;;;5046927;28;20037;-66
2021/11/24 02:49:42;;;;;;;20.15;12.63;;;3.70;81.50;;;;;;5048449;28;20404;-68
2021/11/24 02:52:08;;;;;;;22.13;13.40;;;3.80;81.40;;;;;;5045260;28;20039;-68
2021/11/24 02:54:34;;;;;;;19.80;13.40;;;3.80;81.40;;;;;;5038668;28;20052;-67
2021/11/24 02:57:02;;;;;;;19.83;12.80;;;3.80;81.40;;;;;;5044637;28;20041;-68
2021/11/24 02:59:28;;;;;;;22.08;13.07;;;3.90;81.40;;;;;;5039210;28;20899;-68
2021/11/24 03:01:54;;;;;;;22.48;12.88;;;3.90;82.10;;;;;;5045031;28;20048;-66
2021/11/24 03:04:20;;;;;;;21.17;13.77;;;3.90;81.10;;;;;;5045905;28;20123;-68
2021/11/24 03:06:45;;;;;;;21.58;13.63;;;3.90;80.90;;;;;;5041403;28;20113;-67
2021/11/24 03:09:11;;;;;;;23.02;14.15;;;3.90;80.60;;;;;;5046120;28;20033;-68
2021/11/24 03:11:36;;;;;;;20.08;12.55;;;3.90;80.60;;;;;;5038394;28;20037;-67
2021/11/24 03:14:02;;;;;;;23.92;15.10;;;3.90;80.70;;;;;;5044585;28;20048;-68
2021/11/24 03:16:28;;;;;;;19.73;12.95;;;3.90;80.70;;;;;;5042863;28;20037;-68
2021/11/24 03:18:54;;;;;;;21.30;13.25;;;3.80;81.40;;;;;;5038545;28;20045;-68
2021/11/24 03:21:19;;;;;;;20.75;12.90;;;3.80;80.70;;;;;;5039299;28;20037;-68
2021/11/24 03:23:45;;;;;;;21.17;12.95;;;3.80;80.90;;;;;;5044427;28;20120;-68
2021/11/24 03:26:11;;;;;;;20.23;12.90;;;3.70;80.90;;;;;;5042794;28;20040;-68
2021/11/24 03:28:36;;;;;;;21.85;12.57;;;3.70;81.00;;;;;;5039580;28;21503;-68
2021/11/24 03:31:02;;;;;;;20.58;11.82;;;3.70;80.90;;;;;;5040210;28;20465;-68
2021/11/24 03:33:28;;;;;;;20.45;13.23;;;3.70;80.90;;;;;;5047043;28;20025;-68
2021/11/24 03:35:54;;;;;;;21.20;12.57;;;3.70;81.00;;;;;;5038274;28;20531;-68
2021/11/24 03:38:20;;;;;;;21.45;12.95;;;3.70;81.10;;;;;;5042291;28;20044;-68
2021/11/24 03:40:45;;;;;;;20.85;12.85;;;3.70;81.10;;;;;;5040950;28;20044;-68
2021/11/24 03:43:11;;;;;;;20.90;12.02;;;3.70;81.10;;;;;;5038398;28;20032;-68
2021/11/24 03:45:38;;;;;;;20.00;12.68;;;3.70;81.20;;;;;;5040729;28;20536;-68
2021/11/24 03:48:05;;;;;;;20.48;12.10;;;3.70;81.10;;;;;;5041420;28;20587;-67
2021/11/24 03:50:31;;;;;;;19.33;12.00;;;3.70;81.10;;;;;;5040865;28;20120;-68
2021/11/24 03:52:57;;;;;;;18.70;11.52;;;3.70;81.10;;;;;;5042172;28;20095;-68
2021/11/24 03:55:23;;;;;;;19.42;12.27;;;3.70;81.10;;;;;;5041353;28;20033;-68
2021/11/24 03:57:49;;;;;;;20.67;13.32;;;3.70;81.10;;;;;;5039479;28;20041;-67
2021/11/24 04:00:19;;;;;;;22.83;14.05;;;3.70;81.10;;;;;;5043139;28;20041;-68
2021/11/24 04:02:44;;;;;;;22.25;14.30;;;3.70;81.10;;;;;;5041919;28;21582;-68
2021/11/24 04:05:11;;;;;;;23.40;14.05;;;3.60;80.90;;;;;;5036105;28;21071;-68
2021/11/24 04:07:37;;;;;;;22.40;13.60;;;3.60;80.90;;;;;;5034323;28;20037;-68
2021/11/24 04:10:04;;;;;;;23.75;14.10;;;3.60;80.70;;;;;;5042589;28;20065;-68
2021/11/24 04:12:30;;;;;;;20.55;12.68;;;3.60;80.80;;;;;;5037731;28;20032;-68
2021/11/24 04:14:55;;;;;;;17.77;11.68;;;3.50;80.90;;;;;;5045650;28;20107;-68
2021/11/24 04:17:22;;;;;;;20.10;12.55;;;3.50;81.10;;;;;;5041325;28;20083;-66
2021/11/24 04:19:48;;;;;;;19.33;12.68;;;3.50;81.30;;;;;;5045756;28;20064;-68
2021/11/24 04:22:13;;;;;;;20.10;12.93;;;3.50;81.30;;;;;;5041145;28;20087;-68
2021/11/24 04:24:40;;;;;;;18.10;12.15;;;3.50;81.30;;;;;;5041369;28;20037;-68
2021/11/24 04:27:06;;;;;;;21.58;13.07;;;3.50;81.30;;;;;;5043068;28;20055;-67
2021/11/24 04:29:32;;;;;;;21.65;12.77;;;3.50;81.20;;;;;;5042597;28;20119;-68
2021/11/24 04:31:57;;;;;;;18.35;12.20;;;3.50;81.20;;;;;;5038029;28;20648;-67
2021/11/24 04:34:23;;;;;;;20.55;12.52;;;3.50;81.10;;;;;;5037375;28;20041;-68
2021/11/24 04:36:49;;;;;;;21.27;13.35;;;3.50;81.10;;;;;;5030160;28;20044;-68
2021/11/24 04:39:14;;;;;;;24.90;13.98;;;3.50;81.00;;;;;;5037662;28;20087;-68
2021/11/24 04:41:40;;;;;;;32.38;17.05;;;3.50;80.90;;;;;;5038246;28;20480;-68
2021/11/24 04:44:06;;;;;;;28.23;15.55;;;3.50;80.70;;;;;;5039369;28;20040;-68
2021/11/24 04:46:32;;;;;;;25.42;14.00;;;3.50;80.60;;;;;;5034649;28;20492;-68
2021/11/24 04:48:58;;;;;;;22.75;14.32;;;3.50;80.40;;;;;;5035610;28;20044;-68
2021/11/24 04:51:24;;;;;;;22.40;12.73;;;3.50;80.40;;;;;;5040033;28;20036;-67
2021/11/24 04:53:50;;;;;;;20.52;12.50;;;3.40;80.30;;;;;;5038230;28;20044;-68
2021/11/24 04:56:16;;;;;;;20.98;13.45;;;3.40;80.30;;;;;;5041455;28;20072;-68
2021/11/24 04:58:52;;;;;;;20.52;13.20;;;3.40;80.30;;;;;;5038629;28;20034;-66
2021/11/24 05:01:18;;;;;;;21.13;12.48;;;3.40;80.40;;;;;;5041601;28;20642;-68
2021/11/24 05:03:44;;;;;;;23.42;13.70;;;3.40;80.40;;;;;;5044125;28;20112;-67
2021/11/24 05:06:10;;;;;;;21.15;14.23;;;3.40;80.40;;;;;;5037197;28;20033;-68
2021/11/24 05:08:35;;;;;;;20.35;12.77;;;3.40;80.40;;;;;;5040732;28;20621;-68
2021/11/24 05:11:02;;;;;;;21.10;13.27;;;3.30;80.40;;;;;;5033864;28;20060;-66
2021/11/24 05:13:28;;;;;;;23.35;14.30;;;3.30;80.40;;;;;;5041649;28;20033;-67
2021/11/24 05:15:59;;;;;;;19.83;12.55;;;3.30;80.50;;;;;;5040002;28;20052;-68
2021/11/24 05:18:30;;;;;;;22.80;13.57;;;3.30;80.60;;;;;;5040972;28;20041;-68
2021/11/24 05:21:02;;;;;;;21.98;14.02;;;3.30;80.70;;;;;;5040017;28;20720;-67
2021/11/24 05:23:31;;;;;;;26.05;15.43;;;3.30;80.90;;;;;;5041029;28;20108;-68
2021/11/24 05:25:56;;;;;;;26.98;16.67;;;3.30;80.90;;;;;;5037310;28;20043;-68
2021/11/24 05:28:22;;;;;;;26.08;15.88;;;3.30;81.10;;;;;;5039054;28;20041;-68
2021/11/24 05:30:48;;;;;;;27.85;16.02;;;3.30;81.10;;;;;;5042584;28;20671;-67
2021/11/24 05:33:13;;;;;;;25.27;14.98;;;3.30;82.00;;;;;;5040168;28;20036;-67
2021/11/24 05:35:39;;;;;;;25.02;15.38;;;3.30;81.30;;;;;;5040725;28;20072;-68
2021/11/24 05:38:04;;;;;;;27.23;15.63;;;3.30;81.30;;;;;;5040596;28;20040;-67
2021/11/24 05:40:30;;;;;;;27.98;16.85;;;3.30;81.30;;;;;;5034817;28;20534;-68
2021/11/24 05:42:56;;;;;;;27.45;16.35;;;3.30;81.30;;;;;;5040706;28;20098;-67
2021/11/24 05:45:39;;;;;;;26.17;15.65;;;3.30;81.30;;;;;;5042598;28;20041;-67
2021/11/24 05:48:09;;;;;;;28.52;17.02;;;3.30;81.20;;;;;;5035764;28;20033;-67
2021/11/24 05:50:36;;;;;;;27.98;16.40;;;3.30;81.20;;;;;;5039966;28;20061;-67
2021/11/24 05:53:02;;;;;;;28.90;16.98;;;3.30;81.30;;;;;;5038677;28;20029;-66
2021/11/24 05:55:28;;;;;;;30.10;16.77;;;3.30;81.30;;;;;;5044240;28;20033;-67
2021/11/24 05:57:54;;;;;;;31.67;16.58;;;3.30;81.30;;;;;;5044287;28;20040;-67
2021/11/24 06:00:20;;;;;;;30.90;17.70;;;3.30;81.20;;;;;;5043463;28;20036;-67
2021/11/24 06:02:46;;;;;;;29.90;17.25;;;3.30;81.10;;;;;;5043282;28;20037;-67
2021/11/24 06:05:12;;;;;;;29.52;16.70;;;3.30;81.10;;;;;;5045163;28;20263;-68
2021/11/24 06:07:39;;;;;;;36.58;19.48;;;3.20;81.10;;;;;;5041075;28;20044;-70
2021/11/24 06:10:08;;;;;;;35.40;19.63;;;3.20;81.10;;;;;;5048222;28;20626;-68
2021/11/24 06:12:34;;;;;;;30.27;17.35;;;3.10;81.10;;;;;;5045755;28;20040;-68
2021/11/24 06:15:00;;;;;;;30.80;17.40;;;3.10;81.30;;;;;;5049057;28;20029;-69
2021/11/24 06:17:25;;;;;;;30.13;17.42;;;3.00;81.40;;;;;;5046405;28;20090;-69
2021/11/24 06:19:52;;;;;;;32.33;16.83;;;3.00;81.50;;;;;;5048309;28;20052;-67
2021/11/24 06:22:17;;;;;;;30.27;17.27;;;3.00;81.40;;;;;;5048959;28;20029;-69
2021/11/24 06:24:43;;;;;;;29.08;16.08;;;3.00;81.40;;;;;;5041653;28;20052;-69
2021/11/24 06:27:09;;;;;;;31.85;18.23;;;2.90;81.30;;;;;;5033653;28;20040;-68
2021/11/24 06:29:35;;;;;;;29.17;16.50;;;2.90;81.40;;;;;;5033481;28;20052;-68
2021/11/24 06:32:01;;;;;;;31.17;16.48;;;2.80;81.20;;;;;;5043583;28;20037;-66
2021/11/24 06:34:26;;;;;;;28.45;16.40;;;2.80;81.40;;;;;;5043563;28;20637;-68
2021/11/24 06:36:53;;;;;;;33.50;16.63;;;2.80;81.40;;;;;;5046058;28;20056;-67
2021/11/24 06:39:23;;;;;;;26.85;15.68;;;2.70;81.50;;;;;;5043367;28;20033;-68
2021/11/24 06:41:49;;;;;;;29.77;16.50;;;2.70;81.70;;;;;;5045701;28;20120;-68
2021/11/24 06:44:15;;;;;;;33.83;18.27;;;2.70;81.80;;;;;;5042919;28;20047;-69
2021/11/24 06:46:40;;;;;;;30.33;15.70;;;2.60;81.60;;;;;;5043562;28;20691;-67
2021/11/24 06:49:07;;;;;;;32.33;16.38;;;2.60;81.50;;;;;;5045053;28;20095;-69
2021/11/24 06:51:32;;;;;;;28.65;15.40;;;2.50;81.80;;;;;;5042756;28;20037;-68
2021/11/24 06:53:58;;;;;;;32.85;16.83;;;2.50;82.00;;;;;;5044826;28;20520;-69
2021/11/24 06:56:24;;;;;;;30.60;15.95;;;2.50;82.10;;;;;;5044367;28;20040;-69
2021/11/24 06:58:49;;;;;;;35.13;16.45;;;2.50;82.10;;;;;;5042953;28;20037;-69
2021/11/24 07:01:15;;;;;;;29.65;15.77;;;2.50;82.10;;;;;;5044736;28;20064;-67
2021/11/24 07:03:41;;;;;;;34.70;17.42;;;2.50;82.10;;;;;;5042297;28;20033;-67
2021/11/24 07:06:06;;;;;;;35.17;17.38;;;2.50;82.30;;;;;;5041848;28;20041;-66
2021/11/24 07:08:32;;;;;;;30.50;15.90;;;2.50;82.30;;;;;;5035221;28;20037;-66
2021/11/24 07:10:58;;;;;;;31.48;16.63;;;2.40;82.10;;;;;;5034436;28;20037;-67
2021/11/24 07:13:23;;;;;;;35.08;17.08;;;2.40;82.30;;;;;;5034120;28;20156;-67
2021/11/24 07:15:49;;;;;;;36.30;16.90;;;2.40;82.30;;;;;;5035911;28;20037;-66
2021/11/24 07:18:14;;;;;;;33.45;16.80;;;2.50;82.40;;;;;;5040413;28;20551;-67
2021/11/24 07:20:40;;;;;;;37.63;16.60;;;2.50;82.50;;;;;;5041577;28;20031;-67
2021/11/24 07:23:06;;;;;;;36.80;17.38;;;2.50;82.40;;;;;;5041685;28;20025;-69
2021/11/24 07:25:32;;;;;;;33.67;16.27;;;2.40;82.40;;;;;;5042178;28;20120;-66
2021/11/24 07:27:58;;;;;;;34.72;16.90;;;2.50;82.50;;;;;;5042395;28;20588;-67
2021/11/24 07:30:24;;;;;;;34.17;17.20;;;2.40;82.50;;;;;;5043193;28;20416;-66
2021/11/24 07:32:50;;;;;;;38.60;16.98;;;2.40;82.60;;;;;;5044478;28;20107;-67
2021/11/24 07:35:16;;;;;;;35.42;17.70;;;2.40;82.60;;;;;;5043259;28;20051;-66
2021/11/24 07:37:42;;;;;;;40.67;19.88;;;2.40;82.60;;;;;;5042162;28;20049;-67
2021/11/24 07:40:09;;;;;;;37.70;18.77;;;2.40;82.60;;;;;;5044003;28;20076;-67
2021/11/24 07:42:35;;;;;;;33.10;16.75;;;2.30;82.60;;;;;;5042324;28;20029;-68
2021/11/24 07:45:01;;;;;;;35.63;16.48;;;2.30;82.70;;;;;;5044825;28;20473;-67
2021/11/24 07:47:27;;;;;;;34.35;17.25;;;2.30;83.00;;;;;;5042741;28;20566;-67
2021/11/24 07:49:52;;;;;;;35.95;16.83;;;2.30;83.20;;;;;;5040707;28;20143;-67
2021/11/24 07:52:19;;;;;;;32.78;16.67;;;2.30;83.20;;;;;;5043594;28;20032;-70
2021/11/24 07:54:45;;;;;;;36.90;17.30;;;2.30;83.30;;;;;;5039257;28;20051;-67
2021/11/24 07:57:10;;;;;;;34.50;16.67;;;2.30;83.50;;;;;;5040705;28;22318;-69
2021/11/24 07:59:37;;;;;;;35.00;16.17;;;2.30;83.60;;;;;;5043129;28;21279;-68
2021/11/24 08:02:03;;;;;;;39.90;16.70;;;2.40;83.70;;;;;;5041378;28;20056;-68
2021/11/24 08:04:30;;;;;;;36.20;16.70;;;2.40;83.70;;;;;;5041954;28;20440;-67
2021/11/24 08:06:59;;;;;;;33.33;16.20;;;2.40;83.70;;;;;;5042879;28;20521;-68
2021/11/24 08:09:26;;;;;;;34.30;15.85;;;2.40;83.70;;;;;;5043315;28;20478;-69
2021/11/24 08:11:52;;;;;;;37.05;16.65;;;2.40;83.70;;;;;;5033322;28;20431;-68
2021/11/24 08:14:17;;;;;;;33.60;15.85;;;2.50;83.60;;;;;;5042919;28;20029;-69
2021/11/24 08:16:43;;;;;;;34.00;16.33;;;2.60;83.70;;;;;;5041070;28;20064;-68
2021/11/24 08:19:08;;;;;;;35.00;16.88;;;2.60;83.60;;;;;;5041321;28;20040;-69
2021/11/24 08:21:34;;;;;;;32.70;16.42;;;2.60;83.50;;;;;;5043757;28;20522;-68
2021/11/24 08:24:00;;;;;;;32.85;15.75;;;2.70;83.50;;;;;;5042285;28;20033;-69
2021/11/24 08:26:26;;;;;;;35.03;16.75;;;2.70;83.50;;;;;;5041298;28;20030;-69
2021/11/24 08:28:52;;;;;;;34.85;16.70;;;2.80;83.60;;;;;;5043523;28;20037;-68
2021/11/24 08:31:18;;;;;;;35.55;16.92;;;2.70;83.40;;;;;;5039026;28;20406;-69
2021/11/24 08:33:43;;;;;;;30.40;14.90;;;2.80;83.40;;;;;;5042800;28;20045;-68
2021/11/24 08:36:12;;;;;;;31.67;15.27;;;2.80;83.30;;;;;;5042887;28;20071;-69
2021/11/24 08:38:39;;;;;;;34.40;16.20;;;2.80;83.20;;;;;;5042343;28;20052;-69
2021/11/24 08:41:05;;;;;;;37.10;17.70;;;2.90;83.20;;;;;;5041545;28;20123;-68
2021/11/24 08:43:31;;;;;;;38.67;16.50;;;2.90;83.00;;;;;;5041917;28;20737;-68
2021/11/24 08:45:58;;;;;;;41.35;18.40;;;2.90;82.80;;;;;;5040656;28;20080;-68
2021/11/24 08:48:24;;;;;;;43.45;17.48;;;2.90;82.80;;;;;;5042549;28;20033;-69
2021/11/24 08:50:50;;;;;;;37.03;17.25;;;2.80;82.50;;;;;;5039733;28;20517;-67
2021/11/24 08:53:15;;;;;;;38.40;18.15;;;2.80;82.60;;;;;;5042363;28;20029;-68
2021/11/24 08:55:41;;;;;;;40.72;16.63;;;2.80;82.60;;;;;;5041710;28;20068;-68
2021/11/24 08:58:07;;;;;;;37.55;16.05;;;2.80;82.70;;;;;;5043059;28;20037;-69
2021/11/24 09:00:32;;;;;;;38.55;16.77;;;2.80;82.70;;;;;;5042505;28;20126;-68
2021/11/24 09:02:58;;;;;;;38.85;18.30;;;2.80;82.80;;;;;;5035290;28;20406;-67
2021/11/24 09:05:25;;;;;;;38.90;17.77;;;2.70;83.60;;;;;;5040737;28;20052;-67
2021/11/24 09:07:51;;;;;;;42.85;17.38;;;2.70;82.80;;;;;;5043854;28;20033;-69
2021/11/24 09:10:18;;;;;;;47.72;19.83;;;2.70;82.90;;;;;;5041643;28;20519;-67
2021/11/24 09:12:44;;;;;;;42.35;18.80;;;2.70;83.00;;;;;;5037408;28;20120;-67
2021/11/24 09:15:09;;;;;;;41.85;18.50;;;2.70;83.00;;;;;;5040853;28;20025;-68
2021/11/24 09:17:35;;;;;;;40.72;17.73;;;2.70;83.00;;;;;;5041096;28;20526;-67
2021/11/24 09:20:01;;;;;;;41.00;17.45;;;2.70;83.20;;;;;;5043551;28;20037;-67
2021/11/24 09:22:27;;;;;;;42.15;17.55;;;2.70;83.40;;;;;;5039215;28;20037;-68
2021/11/24 09:24:56;;;;;;;35.63;16.75;;;2.70;83.40;;;;;;5040093;28;20496;-68
2021/11/24 09:27:29;;;;;;;31.88;15.80;;;2.80;84.30;;;;;;5039471;28;20064;-68
2021/11/24 09:29:56;;;;;;;36.57;17.17;;;2.80;83.30;;;;;;5043253;28;20036;-67
2021/11/24 09:32:23;;;;;;;35.72;16.27;;;2.80;83.20;;;;;;5045195;28;20037;-68
2021/11/24 09:34:48;;;;;;;36.65;16.80;;;2.90;83.10;;;;;;5045410;28;20095;-67
2021/11/24 09:37:14;;;;;;;35.00;16.70;;;2.90;83.00;;;;;;5046690;28;20044;-68
2021/11/24 09:39:40;;;;;;;31.23;15.48;;;2.90;82.80;;;;;;5042856;28;20041;-68
2021/11/24 09:42:06;;;;;;;33.17;16.38;;;3.00;82.80;;;;;;5046358;28;20037;-68
2021/11/24 09:44:32;;;;;;;35.65;15.23;;;3.00;82.70;;;;;;5047802;28;20043;-68
2021/11/24 09:46:58;;;;;;;29.35;14.93;;;3.00;82.60;;;;;;5044846;28;20412;-69
2021/11/24 09:49:25;;;;;;;31.70;14.63;;;3.00;82.60;;;;;;5045627;28;20037;-68
2021/11/24 09:51:52;;;;;;;33.42;16.38;;;3.10;82.80;;;;;;5042354;28;20286;-66
2021/11/24 09:54:18;;;;;;;30.90;15.40;;;3.10;83.50;;;;;;5043653;28;20036;-68
2021/11/24 09:56:45;;;;;;;30.70;14.95;;;3.10;82.60;;;;;;5044600;28;20046;-67
2021/11/24 09:59:12;;;;;;;31.65;15.60;;;3.20;82.50;;;;;;5047019;28;20052;-69
2021/11/24 10:01:38;;;;;;;32.17;15.43;;;3.20;82.40;;;;;;5045745;28;20033;-68
2021/11/24 10:04:09;;;;;;;30.20;14.82;;;3.30;82.40;;;;;;5045312;28;20087;-68
2021/11/24 10:06:37;;;;;;;30.95;15.43;;;3.30;82.20;;;;;;5045223;28;20593;-67
2021/11/24 10:09:03;;;;;;;31.50;14.88;;;3.40;82.20;;;;;;5045590;28;20037;-68
2021/11/24 10:11:29;;;;;;;29.30;14.80;;;3.40;82.00;;;;;;5040890;28;20496;-68
2021/11/24 10:13:55;;;;;;;29.73;14.30;;;3.40;81.80;;;;;;5044783;28;20435;-68
2021/11/24 10:16:26;;;;;;;30.08;14.70;;;3.50;81.90;;;;;;5040784;28;20040;-67
2021/11/24 10:19:10;;;;;;;28.67;13.40;;;3.50;81.60;;;;;;5044791;28;20700;-69
2021/11/24 10:22:02;;;;;;;27.60;14.23;;;3.50;81.60;;;;;;5046165;28;20044;-68
2021/11/24 10:24:53;;;;;;;37.05;16.55;;;3.60;81.50;;;;;;5044656;28;20036;-66
2021/11/24 10:27:33;;;;;;;39.92;18.13;;;3.60;81.30;;;;;;5046644;28;20133;-67
2021/11/24 10:29:59;;;;;;;44.72;20.15;;;3.60;81.10;;;;;;5043370;28;20033;-67
2021/11/24 10:32:28;;;;;;;48.38;22.25;;;3.70;81.10;;;;;;5044808;28;20044;-69
2021/11/24 10:34:56;;;;;;;46.38;20.38;;;3.60;80.10;;;;;;5043513;28;20045;-68
2021/11/24 10:37:22;;;;;;;45.00;20.23;;;3.60;80.30;;;;;;5044780;28;20033;-68
2021/11/24 10:39:59;;;;;;;45.30;20.42;;;3.50;80.70;;;;;;5045111;28;20044;-66
2021/11/24 10:42:39;;;;;;;40.30;19.40;;;3.40;80.90;;;;;;5038714;28;20498;-68
2021/11/24 10:45:13;;;;;;;47.22;21.85;;;3.40;80.80;;;;;;5046623;28;20088;-67
2021/11/24 10:47:54;;;;;;;49.22;22.10;;;3.40;80.90;;;;;;5042870;28;20041;-65
2021/11/24 10:50:33;;;;;;;47.28;22.00;;;3.30;80.90;;;;;;5043429;28;20301;-67
2021/11/24 10:52:59;;;;;;;44.95;20.42;;;3.30;82.00;;;;;;5045326;28;20037;-67
2021/11/24 10:55:30;;;;;;;45.60;19.75;;;3.30;81.40;;;;;;5041747;28;20082;-68
2021/11/24 10:58:27;;;;;;;49.50;22.23;;;3.20;81.60;;;;;;5044231;28;20173;-67
2021/11/24 11:00:55;;;;;;;50.00;22.45;;;3.20;82.50;;;;;;5043006;28;20030;-67
2021/11/24 11:03:40;;;;;;;50.45;21.00;;;3.20;81.60;;;;;;5045844;28;20032;-67
2021/11/24 11:06:06;;;;;;;50.03;22.08;;;3.20;81.90;;;;;;5043507;28;20044;-68
2021/11/24 11:08:31;;;;;;;49.22;23.00;;;3.20;82.00;;;;;;5040737;28;20025;-67
2021/11/24 11:11:04;;;;;;;45.88;20.88;;;3.20;81.90;;;;;;5041938;28;20041;-68
2021/11/24 11:13:31;;;;;;;47.58;21.10;;;3.20;82.10;;;;;;5045965;28;20036;-69
2021/11/24 11:15:58;;;;;;;44.53;20.50;;;3.20;82.20;;;;;;5045970;28;20033;-68
2021/11/24 11:18:33;;;;;;;41.92;19.10;;;3.20;82.30;;;;;;5045200;28;20424;-68
2021/11/24 11:21:06;;;;;;;47.28;20.33;;;3.20;82.50;;;;;;5046560;28;20115;-68
2021/11/24 11:23:35;;;;;;;42.30;20.25;;;3.30;82.40;;;;;;5045403;28;20113;-68
2021/11/24 11:26:06;;;;;;;31.63;16.20;;;3.40;82.00;;;;;;5044940;28;20116;-68
2021/11/24 11:28:40;;;;;;;28.00;14.32;;;3.40;82.00;;;;;;5043469;28;20064;-67
2021/11/24 11:31:08;;;;;;;28.90;14.38;;;3.40;82.00;;;;;;5045134;28;20136;-68
2021/11/24 11:33:38;;;;;;;29.88;14.57;;;3.50;82.10;;;;;;5045961;28;20041;-68
2021/11/24 11:36:09;;;;;;;41.70;19.48;;;3.50;81.90;;;;;;5045016;28;20124;-68
2021/11/24 11:38:45;;;;;;;45.38;20.90;;;3.60;81.80;;;;;;5043606;28;20025;-67
2021/11/24 11:41:11;;;;;;;54.47;21.85;;;3.60;81.10;;;;;;5039469;28;20037;-67
2021/11/24 11:43:38;;;;;;;52.22;21.30;;;3.60;80.80;;;;;;5042157;28;20496;-67
2021/11/24 11:46:15;;;;;;;52.13;22.02;;;3.60;80.90;;;;;;5041781;28;20451;-67
2021/11/24 11:48:43;;;;;;;54.60;23.92;;;3.50;80.70;;;;;;5043167;28;20048;-67
2021/11/24 11:51:09;;;;;;;50.70;22.70;;;3.50;80.20;;;;;;5046840;28;20396;-68
2021/11/24 11:53:39;;;;;;;51.50;21.42;;;3.50;80.10;;;;;;5043325;28;20021;-68
2021/11/24 11:56:13;;;;;;;54.67;22.80;;;3.40;80.60;;;;;;5041839;28;20026;-67
2021/11/24 11:58:54;;;;;;;51.53;22.08;;;3.30;80.90;;;;;;5042419;28;20025;-67
2021/11/24 12:01:23;;;;;;;54.72;23.45;;;3.20;81.10;;;;;;5044362;28;20029;-68
2021/11/24 12:04:14;;;;;;;54.60;23.77;;;3.20;80.90;;;;;;5044288;28;20032;-68
2021/11/24 12:06:42;;;;;;;48.88;21.85;;;3.20;81.10;;;;;;5042194;28;20025;-66
2021/11/24 12:09:21;;;;;;;51.97;23.38;;;3.10;81.30;;;;;;5040172;28;20112;-68
2021/11/24 12:12:04;;;;;;;51.78;21.55;;;3.10;81.40;;;;;;5038951;28;20129;-68
2021/11/24 12:14:51;;;;;;;47.20;22.77;;;3.10;81.60;;;;;;5043502;28;20029;-68
2021/11/24 12:17:32;;;;;;;54.78;23.15;;;3.10;81.60;;;;;;5036618;28;20067;-67
2021/11/24 12:19:58;;;;;;;45.63;20.00;;;3.00;81.30;;;;;;5043784;28;20591;-67
2021/11/24 12:27:53;;;;;;;50.47;22.42;;;2.90;82.00;;;;;;5041038;28;20120;-68
2021/11/24 12:33:02;;;;;;;50.17;21.23;;;2.90;82.00;;;;;;5040721;28;20037;-68
2021/11/24 12:35:28;;;;;;;46.08;21.02;;;2.90;82.00;;;;;;5038511;28;20036;-67
2021/11/24 12:37:57;;;;;;;57.35;26.88;;;2.80;82.10;;;;;;5043895;28;20041;-67
2021/11/24 12:40:29;;;;;;;46.95;21.00;;;2.80;82.20;;;;;;5043086;28;20579;-69
2021/11/24 12:43:00;;;;;;;49.78;20.52;;;2.80;82.20;;;;;;5042804;28;20033;-67
2021/11/24 12:45:26;;;;;;;45.65;20.45;;;2.80;82.40;;;;;;5041389;28;20051;-67